KIND/IND METAR and TAF weather

Enter ICAO airport designator
Station Type Date Time Source
KIND METAR 2022/12/04 03:54 UTC NOAA

KIND 040354Z 27006KT 10SM FEW250 M05/M09 A3045 RMK AO2 SLP320 T10501094


Station Type Date Time Source
KIND Decoded METAR 2022/12/04 03:54 UTC NOAA

INDIANAPOLIS INTERNATIONAL AIRPORT , IN, United States (KIND) 39-43N 86-17W 242M
Dec 03, 2022 - 10:54 PM EST / 2022.12.04 0354 UTC
Wind: from the W (270 degrees) at 7 MPH (6 KT):0
Visibility: 10 mile(s):0
Sky conditions: mostly clear
Temperature: 23.0 F (-5.0 C)
Windchill: 14 F (-10 C):1
Dew Point: 15.1 F (-9.4 C)
Relative Humidity: 71%
Pressure (altimeter): 30.45 in. Hg (1031 hPa)
ob: KIND 040354Z 27006KT 10SM FEW250 M05/M09 A3045 RMK AO2 SLP320 T10501094
cycle: 4

Station Type Date Time Source
KIND TAF 2022/12/04 02:21 UTC NOAA

TAF
AMD KIND 040218Z 0402/0506 27005KT P6SM SCT250
FM041100 22006KT P6SM BKN250

Example: see airport list